Time;durP1;ratioP1;P1;durP2;ratioP2;P2;SDS_P1;SDS_P2;PMS_P1;PMS_P2;Temp;Humidity;BMP_temperature;BMP_pressure;BME280_temperature;BME280_humidity;BME280_pressure;Samples;Min_cycle;Max_cycle;Signal;HPM_P1;HPM_P2
2024/01/25 00:00:46;;;;;;;35.38;6.93;;;;;;;8.78;71.80;102318.03;7395949;19;20019;-63
2024/01/25 00:03:16;;;;;;;31.70;6.68;;;;;;;8.86;71.66;102320.38;7398539;19;20520;-61
2024/01/25 00:05:47;;;;;;;35.85;7.03;;;;;;;8.82;71.86;102313.50;7397875;19;20488;-62
2024/01/25 00:08:18;;;;;;;31.40;8.05;;;;;;;8.81;71.53;102317.03;7397523;19;20078;-62
2024/01/25 00:10:48;;;;;;;31.60;7.05;;;;;;;8.84;71.80;102311.63;7395539;19;20019;-64
2024/01/25 00:13:19;;;;;;;30.30;6.95;;;;;;;8.84;71.60;102318.69;7396838;19;20370;-63
2024/01/25 00:15:49;;;;;;;25.90;5.72;;;;;;;8.83;71.85;102309.94;7397905;19;20367;-64
2024/01/25 00:18:19;;;;;;;32.08;6.80;;;;;;;8.84;71.72;102324.84;7397476;19;20011;-65
2024/01/25 00:20:49;;;;;;;29.75;7.13;;;;;;;8.77;71.99;102323.38;7395339;19;20015;-65
2024/01/25 00:23:20;;;;;;;31.10;7.47;;;;;;;8.79;71.95;102321.53;7397647;19;20015;-64
2024/01/25 00:25:49;;;;;;;32.33;7.03;;;;;;;8.72;71.78;102330.63;7397068;19;20026;-65
2024/01/25 00:28:19;;;;;;;31.30;6.55;;;;;;;8.80;71.77;102328.53;7397324;19;20367;-66
2024/01/25 00:30:50;;;;;;;27.00;6.80;;;;;;;8.82;71.84;102321.41;7395246;19;20010;-66
2024/01/25 00:33:20;;;;;;;33.78;7.30;;;;;;;8.82;71.72;102333.78;7398347;19;20367;-65
2024/01/25 00:35:50;;;;;;;26.98;7.55;;;;;;;8.80;72.11;102320.59;7400365;19;20148;-64
2024/01/25 00:38:21;;;;;;;27.25;6.82;;;;;;;8.82;71.78;102334.63;7396747;19;20022;-63
2024/01/25 00:40:51;;;;;;;33.40;7.55;;;;;;;8.73;72.10;102334.97;7394504;19;20014;-62
2024/01/25 00:43:21;;;;;;;29.27;7.63;;;;;;;8.66;72.06;102341.44;7396933;19;20035;-63
2024/01/25 00:45:52;;;;;;;29.27;6.22;;;;;;;8.71;72.26;102329.78;7397002;19;20017;-63
2024/01/25 00:48:22;;;;;;;31.70;7.32;;;;;;;8.54;72.50;102338.34;7394176;19;20022;-63
2024/01/25 00:50:53;;;;;;;30.08;6.13;;;;;;;8.52;72.75;102337.56;7394726;19;20631;-63
2024/01/25 00:53:23;;;;;;;30.75;6.53;;;;;;;8.49;72.75;102329.78;7395745;19;20085;-64
2024/01/25 00:55:53;;;;;;;27.55;5.78;;;;;;;8.36;73.35;102336.44;7396631;19;20042;-65
2024/01/25 00:58:24;;;;;;;31.23;6.03;;;;;;;8.41;73.15;102334.50;7396085;19;20543;-63
2024/01/25 01:00:54;;;;;;;29.08;6.10;;;;;;;8.43;73.24;102334.41;7394040;19;20023;-63
2024/01/25 01:03:25;;;;;;;30.83;6.10;;;;;;;8.42;73.03;102333.56;7395968;19;20018;-62
2024/01/25 01:05:57;;;;;;;34.20;7.68;;;;;;;8.40;73.32;102335.44;7396072;19;20015;-64
2024/01/25 01:08:28;;;;;;;32.85;5.85;;;;;;;8.37;73.34;102351.38;7395998;19;20018;-63
2024/01/25 01:10:58;;;;;;;28.52;6.18;;;;;;;8.38;73.49;102345.16;7393769;19;20491;-65
2024/01/25 01:13:30;;;;;;;27.65;6.32;;;;;;;8.37;73.57;102348.72;7395548;19;20535;-63
2024/01/25 01:16:00;;;;;;;29.13;6.25;;;;;;;8.39;73.50;102348.66;7393942;19;20033;-64
2024/01/25 01:18:38;;;;;;;31.17;7.15;;;;;;;8.46;73.31;102350.16;7395700;19;20018;-62
2024/01/25 01:21:08;;;;;;;32.83;6.80;;;;;;;8.42;73.76;102367.88;7393429;19;20024;-62
2024/01/25 01:23:39;;;;;;;28.35;6.57;;;;;;;8.44;73.43;102365.19;7395448;19;20018;-65
2024/01/25 01:26:09;;;;;;;32.28;6.65;;;;;;;8.39;73.64;102356.59;7395097;19;20043;-64
2024/01/25 01:28:39;;;;;;;28.58;6.20;;;;;;;8.40;73.99;102371.53;7395005;19;20014;-65
2024/01/25 01:31:10;;;;;;;29.83;6.88;;;;;;;8.39;73.70;102365.34;7392937;19;20398;-64
2024/01/25 01:33:41;;;;;;;29.50;6.65;;;;;;;8.37;74.04;102369.84;7394654;19;20106;-65
2024/01/25 01:36:11;;;;;;;33.00;6.57;;;;;;;8.35;74.36;102370.78;7395319;19;20480;-64
2024/01/25 01:38:42;;;;;;;25.88;5.95;;;;;;;8.30;74.32;102373.59;7394530;19;20011;-63
2024/01/25 01:41:12;;;;;;;30.77;6.53;;;;;;;8.30;74.09;102376.25;7392903;19;20467;-63
2024/01/25 01:43:43;;;;;;;31.95;6.40;;;;;;;8.29;74.15;102374.53;7395160;19;20089;-62
2024/01/25 01:46:32;;;;;;;31.35;6.25;;;;;;;8.28;74.31;102373.69;7393351;19;20553;-63
2024/01/25 01:49:03;;;;;;;31.70;6.82;;;;;;;8.25;74.78;102381.72;7394311;19;20026;-62
2024/01/25 01:51:38;;;;;;;24.30;5.55;;;;;;;8.21;74.55;102385.38;7390992;19;20022;-62
2024/01/25 01:54:10;;;;;;;29.05;6.10;;;;;;;8.17;74.90;102380.28;7394029;19;20015;-62
2024/01/25 01:56:44;;;;;;;27.52;6.38;;;;;;;8.20;74.78;102388.06;7394561;19;20046;-62
2024/01/25 01:59:15;;;;;;;32.20;6.15;;;;;;;8.21;74.73;102387.16;7393334;19;20023;-63
2024/01/25 02:01:46;;;;;;;30.13;5.95;;;;;;;8.23;74.82;102393.22;7391824;19;20025;-63
2024/01/25 02:04:16;;;;;;;29.00;5.97;;;;;;;8.18;74.88;102387.28;7394851;19;20043;-62
2024/01/25 02:06:47;;;;;;;28.25;6.40;;;;;;;8.21;74.94;102388.03;7394687;19;20362;-62
2024/01/25 02:09:18;;;;;;;33.42;5.82;;;;;;;8.26;74.71;102399.25;7393815;19;20391;-62
2024/01/25 02:11:59;;;;;;;29.95;6.13;;;;;;;8.24;74.75;102393.19;7391453;19;20035;-62
2024/01/25 02:14:33;;;;;;;30.20;6.60;;;;;;;8.28;74.84;102392.16;7392757;19;20043;-63
2024/01/25 02:17:03;;;;;;;27.10;6.20;;;;;;;8.27;74.94;102393.03;7393812;19;20040;-62
2024/01/25 02:19:39;;;;;;;35.78;6.03;;;;;;;8.19;75.10;102395.13;7393304;19;20022;-62
2024/01/25 02:22:10;;;;;;;27.63;5.72;;;;;;;8.13;75.38;102386.56;7393232;19;20023;-62
2024/01/25 02:24:40;;;;;;;26.70;6.20;;;;;;;8.16;75.37;102386.44;7393483;19;20051;-62
2024/01/25 02:27:11;;;;;;;37.13;6.45;;;;;;;8.13;75.77;102395.38;7394023;19;20015;-61
2024/01/25 02:29:41;;;;;;;27.40;6.15;;;;;;;8.13;75.57;102408.56;7392780;19;20495;-61
2024/01/25 02:32:12;;;;;;;35.25;7.10;;;;;;;8.11;75.80;102402.47;7392249;19;20358;-61
2024/01/25 02:34:42;;;;;;;32.60;7.05;;;;;;;8.09;75.72;102406.06;7392277;19;20107;-61
2024/01/25 02:37:14;;;;;;;29.88;6.80;;;;;;;8.11;76.01;102417.44;7393288;19;20025;-61
2024/01/25 02:39:45;;;;;;;31.17;7.20;;;;;;;8.06;76.13;102410.56;7392451;19;20018;-61
2024/01/25 02:42:16;;;;;;;27.02;7.20;;;;;;;8.05;75.93;102407.94;7392384;19;20523;-61
2024/01/25 02:44:47;;;;;;;37.92;7.65;;;;;;;8.07;76.18;102417.53;7392767;19;20400;-61
2024/01/25 02:47:17;;;;;;;33.15;7.30;;;;;;;8.04;76.13;102400.97;7393349;19;20021;-61
2024/01/25 02:49:47;;;;;;;26.92;7.63;;;;;;;8.11;76.09;102402.47;7391873;19;20433;-62
2024/01/25 02:52:20;;;;;;;29.67;7.25;;;;;;;8.11;75.96;102410.38;7392367;19;20030;-61
2024/01/25 02:54:50;;;;;;;29.70;7.60;;;;;;;8.09;76.20;102420.13;7391947;19;20465;-60
2024/01/25 02:57:21;;;;;;;34.67;7.50;;;;;;;8.07;76.36;102401.72;7390731;19;20022;-61
2024/01/25 02:59:51;;;;;;;32.53;7.32;;;;;;;8.09;76.22;102417.50;7392074;19;20337;-61
2024/01/25 03:02:22;;;;;;;31.00;5.93;;;;;;;8.10;75.89;102427.13;7392058;19;20074;-63
2024/01/25 03:04:52;;;;;;;32.75;6.75;;;;;;;8.05;76.29;102411.47;7391156;19;20495;-63
2024/01/25 03:07:23;;;;;;;33.83;6.65;;;;;;;8.05;76.17;102424.66;7392898;19;20398;-62
2024/01/25 03:09:53;;;;;;;30.25;7.25;;;;;;;7.93;76.38;102411.91;7389534;19;20404;-62
2024/01/25 03:12:24;;;;;;;30.92;7.22;;;;;;;8.04;76.30;102433.47;7389506;19;20018;-63
2024/01/25 03:14:54;;;;;;;33.97;7.03;;;;;;;8.00;76.58;102450.34;7391711;19;20102;-64
2024/01/25 03:17:25;;;;;;;32.20;7.45;;;;;;;7.93;76.87;102448.81;7391782;19;20011;-64
2024/01/25 03:19:56;;;;;;;34.13;7.18;;;;;;;7.91;77.04;102463.84;7391193;19;20015;-63
2024/01/25 03:22:27;;;;;;;34.60;7.72;;;;;;;7.94;77.10;102463.75;7391226;19;20057;-64
2024/01/25 03:24:58;;;;;;;31.20;8.07;;;;;;;7.88;77.13;102457.81;7391759;19;20411;-64
2024/01/25 03:27:35;;;;;;;28.83;6.65;;;;;;;7.90;77.12;102454.22;7391952;19;20101;-63
2024/01/25 03:30:06;;;;;;;34.95;6.93;;;;;;;7.92;76.86;102457.66;7390526;19;20015;-63
2024/01/25 03:32:42;;;;;;;33.08;6.78;;;;;;;7.86;77.40;102457.00;7391594;19;20025;-63
2024/01/25 03:35:12;;;;;;;39.50;7.43;;;;;;;7.90;77.39;102462.16;7390745;19;20015;-63
2024/01/25 03:37:45;;;;;;;29.25;7.05;;;;;;;7.87;77.27;102466.66;7390118;19;20105;-63
2024/01/25 03:40:15;;;;;;;32.15;7.55;;;;;;;7.90;77.06;102471.81;7390126;19;20408;-62
2024/01/25 03:42:45;;;;;;;32.63;6.68;;;;;;;7.88;77.17;102471.00;7391326;19;20399;-62
2024/01/25 03:45:42;;;;;;;32.72;6.13;;;;;;;7.89;77.20;102475.38;7390835;19;20062;-61
2024/01/25 03:48:12;;;;;;;34.95;7.85;;;;;;;7.82;77.53;102467.69;7391293;19;20029;-61
2024/01/25 03:50:43;;;;;;;30.55;7.55;;;;;;;7.88;77.39;102482.44;7389641;19;20074;-61
2024/01/25 03:53:14;;;;;;;34.42;7.22;;;;;;;7.81;77.88;102479.13;7391457;19;20077;-62
2024/01/25 03:55:44;;;;;;;31.90;7.43;;;;;;;7.79;77.70;102483.59;7387749;19;20379;-62
2024/01/25 03:58:17;;;;;;;34.33;7.10;;;;;;;7.76;78.27;102486.34;7391033;19;20018;-61
2024/01/25 04:00:48;;;;;;;41.03;8.52;;;;;;;7.77;78.32;102497.75;7388885;19;20022;-60
2024/01/25 04:03:18;;;;;;;30.98;7.50;;;;;;;7.80;78.20;102514.34;7391048;19;20018;-61
2024/01/25 04:05:48;;;;;;;35.78;8.13;;;;;;;7.88;77.84;102505.31;7390732;19;20022;-61
2024/01/25 04:08:19;;;;;;;35.67;7.93;;;;;;;7.85;77.99;102515.94;7389359;19;20105;-61
2024/01/25 04:10:49;;;;;;;34.50;7.60;;;;;;;7.91;78.01;102516.63;7388268;19;20487;-61
2024/01/25 04:13:20;;;;;;;28.63;7.13;;;;;;;7.88;77.93;102510.56;7390669;19;20014;-60
2024/01/25 04:15:50;;;;;;;35.58;8.15;;;;;;;7.86;78.08;102515.03;7388798;19;20385;-62
2024/01/25 04:18:21;;;;;;;38.75;9.85;;;;;;;7.80;78.32;102509.06;7389704;19;20036;-60
2024/01/25 04:20:51;;;;;;;33.88;7.72;;;;;;;7.74;78.43;102511.03;7388290;19;20031;-61
2024/01/25 04:23:21;;;;;;;35.40;7.38;;;;;;;7.80;78.34;102502.94;7397313;19;20018;-60
2024/01/25 04:25:55;;;;;;;30.60;6.75;;;;;;;7.85;78.06;102521.22;7397713;19;20043;-60
2024/01/25 04:28:25;;;;;;;27.77;7.10;;;;;;;7.86;78.09;102523.84;7398257;19;20025;-61
2024/01/25 04:30:55;;;;;;;32.55;7.32;;;;;;;7.85;78.15;102521.22;7395145;19;20047;-63
2024/01/25 04:33:25;;;;;;;34.13;7.53;;;;;;;7.90;77.99;102529.84;7396981;19;20283;-59
2024/01/25 04:35:56;;;;;;;30.50;7.28;;;;;;;7.86;78.17;102528.22;7395447;19;20035;-59
2024/01/25 04:38:26;;;;;;;32.92;6.95;;;;;;;7.89;78.16;102542.16;7397573;19;20027;-60
2024/01/25 04:40:56;;;;;;;34.35;7.20;;;;;;;7.78;78.26;102532.00;7394920;19;20014;-60
2024/01/25 04:43:27;;;;;;;32.92;7.65;;;;;;;7.81;78.47;102534.50;7396807;19;20055;-60
2024/01/25 04:45:57;;;;;;;38.33;6.65;;;;;;;7.84;78.20;102530.06;7396745;19;20018;-61
2024/01/25 04:48:29;;;;;;;32.75;6.75;;;;;;;7.85;77.90;102537.06;7396376;19;20485;-61
2024/01/25 04:50:59;;;;;;;28.75;6.90;;;;;;;7.84;78.03;102528.28;7394263;19;20086;-60
2024/01/25 04:53:35;;;;;;;29.55;6.53;;;;;;;7.76;78.44;102533.81;7397122;19;20021;-62
2024/01/25 04:56:05;;;;;;;31.63;6.60;;;;;;;7.74;78.43;102522.44;7393115;19;20026;-60
2024/01/25 04:58:37;;;;;;;30.83;7.00;;;;;;;7.72;78.71;102528.69;7396545;19;20026;-61
2024/01/25 05:01:08;;;;;;;29.85;6.40;;;;;;;7.76;78.95;102533.81;7392346;19;20102;-62
2024/01/25 05:03:38;;;;;;;31.27;6.43;;;;;;;7.79;78.31;102533.72;7396355;19;20360;-61
2024/01/25 05:06:09;;;;;;;32.45;7.45;;;;;;;7.81;78.21;102537.16;7396608;19;20035;-62
2024/01/25 05:08:42;;;;;;;31.40;6.10;;;;;;;7.80;78.30;102538.06;7396333;19;20052;-62
2024/01/25 05:11:12;;;;;;;27.50;6.20;;;;;;;7.81;78.42;102544.19;7394039;19;20021;-62
2024/01/25 05:13:43;;;;;;;28.52;5.68;;;;;;;7.80;78.36;102538.06;7395918;19;20015;-61
2024/01/25 05:16:13;;;;;;;37.17;6.05;;;;;;;7.81;78.47;102550.34;7394020;19;20022;-62
2024/01/25 05:18:44;;;;;;;32.08;6.07;;;;;;;7.83;77.99;102534.47;7398953;19;20081;-61
2024/01/25 05:21:15;;;;;;;29.05;6.38;;;;;;;7.72;78.53;102540.09;7392860;19;20053;-61
2024/01/25 05:23:45;;;;;;;29.30;5.88;;;;;;;7.72;78.38;102524.28;7396791;19;20011;-61
2024/01/25 05:26:17;;;;;;;29.55;6.25;;;;;;;7.77;78.36;102538.16;7396375;19;20019;-60
2024/01/25 05:28:48;;;;;;;34.33;6.63;;;;;;;7.73;78.75;102533.91;7396336;19;20035;-62
2024/01/25 05:31:19;;;;;;;25.85;5.93;;;;;;;7.68;78.70;102527.06;7392996;19;20386;-61
2024/01/25 05:33:49;;;;;;;32.17;7.10;;;;;;;7.72;78.59;102528.69;7393802;19;20035;-62
2024/01/25 05:36:20;;;;;;;31.17;7.00;;;;;;;7.72;78.74;102526.06;7392444;19;20094;-62
2024/01/25 05:38:50;;;;;;;31.63;7.18;;;;;;;7.70;78.84;102534.00;7395643;19;20384;-62
2024/01/25 05:41:21;;;;;;;31.98;6.68;;;;;;;7.66;78.96;102540.28;7393025;19;20015;-63
2024/01/25 05:43:51;;;;;;;34.25;5.93;;;;;;;7.58;79.14;102523.88;7394716;19;20035;-63
2024/01/25 05:46:21;;;;;;;32.55;7.28;;;;;;;7.67;79.04;102541.16;7394666;19;20018;-62
2024/01/25 05:48:52;;;;;;;29.90;7.13;;;;;;;7.72;79.20;102555.94;7395028;19;20022;-63
2024/01/25 05:51:23;;;;;;;39.58;7.93;;;;;;;7.76;79.20;102567.25;7392528;19;20044;-62
2024/01/25 05:53:53;;;;;;;32.40;7.50;;;;;;;7.69;79.19;102568.34;7394630;19;20030;-63
2024/01/25 05:56:25;;;;;;;27.25;6.10;;;;;;;7.67;79.41;102560.50;7393609;19;20015;-62
2024/01/25 05:58:55;;;;;;;33.80;7.15;;;;;;;7.66;79.52;102568.44;7394717;19;20023;-63
2024/01/25 06:01:26;;;;;;;31.65;6.68;;;;;;;7.58;79.76;102572.19;7392520;19;20026;-63
2024/01/25 06:03:57;;;;;;;34.30;8.25;;;;;;;7.74;79.47;102580.44;7394375;19;20357;-61
2024/01/25 06:06:28;;;;;;;48.92;10.75;;;;;;;7.75;79.16;102563.75;7394506;19;20022;-61
2024/01/25 06:08:59;;;;;;;41.40;10.40;;;;;;;7.72;79.46;102576.16;7392663;19;20019;-61
2024/01/25 06:11:42;;;;;;;39.08;8.63;;;;;;;7.71;79.35;102566.53;7392140;19;20018;-63
2024/01/25 06:14:12;;;;;;;27.27;7.30;;;;;;;7.68;79.67;102577.19;7394093;19;20047;-61
2024/01/25 06:16:42;;;;;;;28.40;6.25;;;;;;;7.68;79.83;102579.81;7392156;19;20026;-56
2024/01/25 06:19:14;;;;;;;35.25;8.70;;;;;;;7.68;79.71;102585.09;7393773;19;20381;-59
2024/01/25 06:21:44;;;;;;;32.95;7.57;;;;;;;7.69;79.65;102589.44;7391235;19;20018;-59
2024/01/25 06:24:15;;;;;;;31.73;8.13;;;;;;;7.72;79.70;102582.28;7393460;19;20021;-60
2024/01/25 06:26:45;;;;;;;37.95;8.15;;;;;;;7.73;79.68;102597.19;7394022;19;20029;-60
2024/01/25 06:29:16;;;;;;;25.90;6.38;;;;;;;7.69;79.77;102594.72;7392449;19;20056;-61
2024/01/25 06:31:47;;;;;;;24.90;6.10;;;;;;;7.65;80.15;102595.72;7391102;19;20043;-62
2024/01/25 06:34:17;;;;;;;32.22;6.70;;;;;;;7.71;79.97;102599.03;7393154;19;20479;-61
2024/01/25 06:36:48;;;;;;;32.17;6.68;;;;;;;7.78;79.48;102597.94;7392276;19;20043;-60
2024/01/25 06:39:18;;;;;;;32.75;7.05;;;;;;;7.77;79.48;102605.88;7392988;19;20053;-62
2024/01/25 06:41:48;;;;;;;32.13;7.28;;;;;;;7.73;79.84;102614.78;7390773;19;20023;-61
2024/01/25 06:44:19;;;;;;;25.23;6.68;;;;;;;7.77;79.69;102612.00;7392265;19;20010;-61
2024/01/25 06:46:49;;;;;;;33.55;7.70;;;;;;;7.73;79.86;102606.88;7389221;19;20025;-59
2024/01/25 06:49:20;;;;;;;32.58;6.78;;;;;;;7.67;79.98;102605.31;7392376;19;20018;-61
2024/01/25 06:51:50;;;;;;;32.03;7.00;;;;;;;7.71;79.95;102619.28;7388800;19;20085;-61
2024/01/25 06:54:21;;;;;;;33.65;8.57;;;;;;;7.73;79.86;102626.19;7392531;19;20023;-60
2024/01/25 06:56:51;;;;;;;37.80;8.63;;;;;;;7.63;80.25;102631.81;7390740;19;20364;-61
2024/01/25 06:59:22;;;;;;;31.52;6.05;;;;;;;7.58;80.45;102627.53;7392840;19;20037;-61
2024/01/25 07:01:52;;;;;;;35.90;6.30;;;;;;;7.62;80.23;102641.50;7392167;19;20010;-62
2024/01/25 07:04:23;;;;;;;33.75;7.47;;;;;;;7.63;80.21;102651.16;7392170;19;20030;-62
2024/01/25 07:06:55;;;;;;;27.13;6.10;;;;;;;7.63;79.97;102651.16;7392534;19;20490;-61
2024/01/25 07:09:25;;;;;;;34.83;7.60;;;;;;;7.63;80.20;102643.25;7392435;19;20089;-61
2024/01/25 07:11:56;;;;;;;32.40;7.55;;;;;;;7.68;79.86;102662.41;7392103;19;20026;-61
2024/01/25 07:14:26;;;;;;;31.38;7.25;;;;;;;7.71;80.05;102661.47;7392482;19;20163;-61
2024/01/25 07:16:56;;;;;;;39.40;8.23;;;;;;;7.74;79.97;102656.94;7390937;19;20020;-61
2024/01/25 07:19:28;;;;;;;31.70;7.07;;;;;;;7.74;79.80;102661.34;7391996;19;20381;-61
2024/01/25 07:21:59;;;;;;;33.90;6.60;;;;;;;7.74;79.84;102674.53;7391845;19;20040;-61
2024/01/25 07:24:36;;;;;;;24.48;5.90;;;;;;;7.67;80.11;102673.88;7391988;19;20022;-60
2024/01/25 07:27:06;;;;;;;34.88;6.70;;;;;;;7.76;79.84;102683.28;7391954;19;20093;-61
2024/01/25 07:29:38;;;;;;;33.53;8.07;;;;;;;7.78;80.04;102676.16;7391214;19;20361;-61
2024/01/25 07:32:08;;;;;;;28.50;6.25;;;;;;;7.81;79.90;102683.97;7391839;19;20023;-60
2024/01/25 07:34:39;;;;;;;30.00;7.25;;;;;;;7.87;79.65;102685.59;7391244;19;20053;-61
2024/01/25 07:37:11;;;;;;;29.33;6.22;;;;;;;7.89;79.25;102692.50;7390414;19;20007;-62
2024/01/25 07:39:41;;;;;;;31.00;6.70;;;;;;;7.89;79.47;102692.50;7391035;19;20010;-61
2024/01/25 07:42:12;;;;;;;26.80;5.90;;;;;;;7.84;79.49;102698.88;7391508;19;20019;-61
2024/01/25 07:44:42;;;;;;;31.35;6.18;;;;;;;7.83;79.57;102700.63;7391741;19;20020;-60
2024/01/25 07:47:13;;;;;;;28.48;6.90;;;;;;;7.86;79.56;102708.47;7389717;19;20025;-61
2024/01/25 07:49:45;;;;;;;34.65;6.78;;;;;;;7.79;79.55;102699.00;7391018;19;20018;-60
2024/01/25 07:52:15;;;;;;;30.95;6.05;;;;;;;7.92;79.19;102702.13;7391114;19;20014;-60
2024/01/25 07:54:46;;;;;;;30.15;6.32;;;;;;;7.84;79.27;102712.91;7390952;19;20031;-60
2024/01/25 07:57:17;;;;;;;30.15;6.13;;;;;;;7.82;79.20;102691.88;7392731;19;20030;-61
2024/01/25 07:59:47;;;;;;;29.55;6.05;;;;;;;7.86;79.15;102705.81;7397650;19;20022;-60
2024/01/25 08:02:19;;;;;;;33.30;6.15;;;;;;;7.70;79.59;102704.53;7398391;19;20026;-60
2024/01/25 08:04:50;;;;;;;39.05;6.75;;;;;;;7.74;79.53;102717.59;7397121;19;20014;-61
2024/01/25 08:07:21;;;;;;;32.30;7.60;;;;;;;7.76;79.67;102705.22;7398657;19;20038;-61
2024/01/25 08:09:52;;;;;;;36.17;7.70;;;;;;;7.82;79.70;102706.81;7397880;19;20018;-60
2024/01/25 08:12:26;;;;;;;34.83;7.25;;;;;;;7.85;79.38;102698.81;7397703;19;20015;-63
2024/01/25 08:14:57;;;;;;;28.13;6.50;;;;;;;7.89;79.28;102705.72;7396584;19;20362;-63
2024/01/25 08:17:30;;;;;;;35.30;8.65;;;;;;;7.77;79.67;102706.94;7396115;19;20010;-62
2024/01/25 08:20:02;;;;;;;32.75;7.63;;;;;;;7.85;79.55;102724.31;7397001;19;20047;-62
2024/01/25 08:22:41;;;;;;;38.22;8.23;;;;;;;7.89;79.40;102725.94;7398171;19;20019;-60
2024/01/25 08:25:13;;;;;;;28.30;6.78;;;;;;;7.99;79.11;102724.75;7397988;19;20491;-59
2024/01/25 08:27:46;;;;;;;29.33;6.38;;;;;;;8.00;79.09;102721.22;7398140;19;20015;-60
2024/01/25 08:30:16;;;;;;;31.40;6.60;;;;;;;7.99;79.33;102733.53;7396138;19;20401;-60
2024/01/25 08:32:45;;;;;;;30.27;7.03;;;;;;;8.01;78.91;102728.19;7396979;19;20014;-59
2024/01/25 08:35:15;;;;;;;30.25;6.03;;;;;;;7.98;78.90;102729.19;7397233;19;20349;-60
2024/01/25 08:37:45;;;;;;;29.40;6.78;;;;;;;7.95;79.36;102731.06;7394756;19;20064;-63
2024/01/25 08:40:15;;;;;;;30.88;7.43;;;;;;;7.89;79.05;102710.97;7395519;19;20021;-62
2024/01/25 08:42:46;;;;;;;35.47;6.68;;;;;;;7.93;78.99;102717.88;7397171;19;20029;-62
2024/01/25 08:45:16;;;;;;;30.80;7.40;;;;;;;7.87;79.47;102717.25;7396628;19;20045;-62
2024/01/25 08:47:46;;;;;;;28.63;5.75;;;;;;;7.88;78.95;102701.34;7396182;19;20041;-63
2024/01/25 08:50:17;;;;;;;25.45;5.53;;;;;;;7.96;78.89;102720.44;7395556;19;20022;-63
2024/01/25 08:52:48;;;;;;;35.67;7.15;;;;;;;8.03;78.93;102731.66;7396403;19;20022;-64
2024/01/25 08:55:18;;;;;;;31.35;6.30;;;;;;;8.02;79.08;102725.53;7395088;19;20021;-62
2024/01/25 08:57:48;;;;;;;41.55;8.25;;;;;;;7.97;78.97;102730.06;7392771;19;20022;-63
2024/01/25 09:00:19;;;;;;;34.53;6.95;;;;;;;7.99;78.68;102733.53;7392592;19;20043;-64
2024/01/25 09:02:49;;;;;;;28.88;6.55;;;;;;;8.03;78.81;102747.50;7392529;19;20746;-63
2024/01/25 09:05:19;;;;;;;34.00;7.05;;;;;;;8.00;78.68;102731.75;7393897;19;20018;-63
2024/01/25 09:07:50;;;;;;;27.55;6.45;;;;;;;8.03;78.70;102737.81;7392625;19;20039;-63
2024/01/25 09:10:21;;;;;;;35.65;7.32;;;;;;;8.06;78.58;102737.72;7391847;19;20025;-64
2024/01/25 09:12:49;;;;;;;32.55;6.57;;;;;;;8.11;78.39;102749.91;7392914;19;20036;-64
2024/01/25 09:15:19;;;;;;;27.40;6.30;;;;;;;8.10;78.21;102742.91;7393943;19;20031;-64
2024/01/25 09:17:48;;;;;;;29.35;7.72;;;;;;;8.11;77.85;102744.63;7391128;19;20019;-63
2024/01/25 09:20:19;;;;;;;28.88;7.72;;;;;;;8.13;77.93;102735.75;7391613;19;20033;-64
2024/01/25 09:22:48;;;;;;;31.55;7.30;;;;;;;8.15;78.07;102741.84;7393068;19;20097;-63
2024/01/25 09:25:20;;;;;;;30.80;7.50;;;;;;;8.08;77.93;102748.22;7393348;19;20010;-64
2024/01/25 09:27:48;;;;;;;31.75;6.20;;;;;;;7.99;78.22;102748.50;7393071;19;20010;-63
2024/01/25 09:30:18;;;;;;;24.80;6.22;;;;;;;8.09;78.08;102755.25;7391066;19;20022;-62
2024/01/25 09:32:46;;;;;;;27.88;6.97;;;;;;;8.20;77.92;102760.16;7392191;19;20018;-59
2024/01/25 09:35:17;;;;;;;25.60;6.47;;;;;;;8.30;77.37;102762.47;7394054;19;20015;-65
2024/01/25 09:37:47;;;;;;;27.95;7.47;;;;;;;8.36;77.18;102774.63;7392097;19;20014;-65
2024/01/25 09:40:20;;;;;;;30.67;8.52;;;;;;;8.24;77.72;102780.25;7392380;19;20034;-65
2024/01/25 09:42:52;;;;;;;35.60;9.15;;;;;;;8.25;77.81;102784.66;7393598;19;20035;-66
2024/01/25 09:45:24;;;;;;;29.73;9.05;;;;;;;8.29;77.46;102779.22;7393836;19;20037;-66
2024/01/25 09:47:54;;;;;;;34.60;9.50;;;;;;;8.24;77.57;102782.91;7393901;19;20018;-66
2024/01/25 09:50:25;;;;;;;34.25;10.32;;;;;;;8.22;77.96;102796.16;7391560;19;20022;-68
2024/01/25 09:52:57;;;;;;;29.98;7.68;;;;;;;8.33;77.46;102794.97;7392502;19;20389;-66
2024/01/25 09:55:34;;;;;;;27.70;7.10;;;;;;;8.28;77.20;102787.19;7394594;19;20018;-66
2024/01/25 09:58:07;;;;;;;35.30;6.87;;;;;;;8.21;77.33;102788.31;7392367;19;20010;-65
2024/01/25 10:00:42;;;;;;;30.27;7.18;;;;;;;8.30;76.92;102786.22;7391644;19;20634;-65
2024/01/25 10:03:13;;;;;;;30.30;7.80;;;;;;;8.45;76.54;102787.53;7393342;19;20017;-65
2024/01/25 10:05:43;;;;;;;30.65;7.93;;;;;;;8.43;76.50;102804.34;7393074;19;20025;-65
2024/01/25 10:08:14;;;;;;;30.75;7.57;;;;;;;8.39;76.57;102803.56;7393369;19;20039;-65
2024/01/25 10:10:45;;;;;;;28.23;7.05;;;;;;;8.38;76.75;102814.19;7391886;19;20019;-65
2024/01/25 10:13:15;;;;;;;23.80;6.57;;;;;;;8.36;76.88;102813.34;7392994;19;20021;-67
2024/01/25 10:15:47;;;;;;;29.98;6.68;;;;;;;8.44;76.30;102806.94;7392338;19;20055;-66
2024/01/25 10:18:17;;;;;;;26.10;5.78;;;;;;;8.53;76.25;102830.41;7392182;19;20019;-66
2024/01/25 10:21:00;;;;;;;23.70;5.32;;;;;;;8.45;76.17;102819.22;7390454;19;20026;-66
2024/01/25 10:23:40;;;;;;;26.77;5.65;;;;;;;8.37;76.56;102830.91;7392785;19;20082;-67
2024/01/25 10:26:11;;;;;;;28.85;6.70;;;;;;;8.36;76.68;102839.75;7393166;19;20042;-66
2024/01/25 10:28:41;;;;;;;28.05;6.45;;;;;;;8.33;77.32;102824.88;7391084;19;20039;-67
2024/01/25 10:31:12;;;;;;;30.83;6.10;;;;;;;8.42;77.01;102831.66;7391163;19;20043;-67
2024/01/25 10:33:43;;;;;;;23.35;5.55;;;;;;;8.44;76.63;102829.84;7391943;19;20022;-67
2024/01/25 10:36:15;;;;;;;27.52;5.95;;;;;;;8.32;77.28;102844.25;7392657;19;20007;-67
2024/01/25 10:38:48;;;;;;;31.33;6.65;;;;;;;8.38;77.41;102845.88;7392688;19;20082;-66
2024/01/25 10:41:19;;;;;;;30.70;7.80;;;;;;;8.37;77.31;102841.47;7390484;19;20372;-66
2024/01/25 10:43:49;;;;;;;25.95;5.95;;;;;;;8.36;77.54;102842.41;7391531;19;20015;-66
2024/01/25 10:46:21;;;;;;;26.55;5.35;;;;;;;8.37;77.33;102852.03;7391501;19;20014;-66
2024/01/25 10:48:53;;;;;;;31.95;5.07;;;;;;;8.42;77.34;102845.72;7391373;19;20033;-67
2024/01/25 10:51:26;;;;;;;27.38;5.32;;;;;;;8.49;77.09;102836.69;7388022;19;20023;-66
2024/01/25 10:53:58;;;;;;;30.48;5.57;;;;;;;8.54;76.70;102833.91;7391963;19;20022;-67
2024/01/25 10:56:41;;;;;;;32.33;8.25;;;;;;;8.69;75.72;102827.28;7391716;19;20036;-64
2024/01/25 10:59:12;;;;;;;26.85;7.20;;;;;;;8.68;75.85;102820.28;7390970;19;20023;-64
2024/01/25 11:01:45;;;;;;;37.17;7.90;;;;;;;8.64;76.32;102822.16;7389052;19;20022;-65
2024/01/25 11:04:17;;;;;;;28.00;6.88;;;;;;;8.67;76.28;102818.56;7390969;19;20019;-64
2024/01/25 11:06:47;;;;;;;28.48;5.85;;;;;;;8.74;75.94;102820.94;7390994;19;20137;-66
2024/01/25 11:09:23;;;;;;;27.27;5.70;;;;;;;8.78;76.05;102821.72;7389546;19;20018;-66
2024/01/25 11:11:54;;;;;;;27.88;5.38;;;;;;;8.89;75.88;102824.88;7390793;19;20345;-66
2024/01/25 11:14:25;;;;;;;30.90;5.40;;;;;;;8.94;75.75;102820.28;7391207;19;20015;-66
2024/01/25 11:16:56;;;;;;;26.98;5.55;;;;;;;9.13;75.14;102823.16;7391855;19;20099;-67
2024/01/25 11:19:27;;;;;;;23.38;4.78;;;;;;;9.20;74.54;102819.41;7389820;19;20018;-67
2024/01/25 11:22:03;;;;;;;26.98;5.18;;;;;;;9.07;74.73;102810.16;7391880;19;20074;-67
2024/01/25 11:24:39;;;;;;;28.20;5.80;;;;;;;9.08;74.99;102792.50;7392409;19;20019;-67
2024/01/25 11:27:10;;;;;;;29.85;4.75;;;;;;;9.19;74.67;102795.63;7391199;19;20499;-66
2024/01/25 11:29:42;;;;;;;25.83;4.85;;;;;;;9.17;74.28;102785.13;7389874;19;20512;-66
2024/01/25 11:32:13;;;;;;;26.05;5.03;;;;;;;9.14;74.37;102785.22;7394347;19;20392;-66
2024/01/25 11:34:44;;;;;;;27.25;5.00;;;;;;;9.10;74.04;102785.41;7399426;19;20020;-66
2024/01/25 11:37:17;;;;;;;25.67;4.72;;;;;;;8.99;74.23;102793.69;7399677;19;20014;-66
2024/01/25 11:39:47;;;;;;;23.05;4.88;;;;;;;8.86;75.06;102792.41;7399055;19;20406;-67
2024/01/25 11:42:18;;;;;;;28.20;4.88;;;;;;;8.91;75.14;102791.31;7399059;19;20050;-67